createdAt,value
2017-05-28T00:00:49.422Z,945.8
2017-05-28T00:01:57.390Z,945.9
2017-05-28T00:03:05.544Z,945.8
2017-05-28T00:04:13.623Z,945.8
2017-05-28T00:05:21.650Z,945.8
2017-05-28T00:06:29.736Z,945.9
2017-05-28T00:07:37.824Z,945.9
2017-05-28T00:08:45.951Z,945.9
2017-05-28T00:09:54.172Z,945.9
2017-05-28T00:11:02.086Z,945.8
2017-05-28T00:12:10.172Z,945.9
2017-05-28T00:13:18.423Z,945.8
2017-05-28T00:14:26.351Z,945.9
2017-05-28T00:15:34.553Z,945.8
2017-05-28T00:16:42.575Z,945.8
2017-05-28T00:17:50.607Z,945.9
2017-05-28T00:18:58.693Z,945.9
2017-05-28T00:20:06.783Z,945.8
2017-05-28T00:21:14.988Z,945.8
2017-05-28T00:22:22.955Z,945.8
2017-05-28T00:23:31.042Z,945.9
2017-05-28T00:24:39.131Z,945.9
2017-05-28T00:25:47.410Z,945.9
2017-05-28T00:26:55.422Z,945.8
2017-05-28T00:28:03.388Z,945.8
2017-05-28T00:29:11.475Z,945.8
2017-05-28T00:30:19.561Z,945.8
2017-05-28T00:31:27.652Z,945.8
2017-05-28T00:32:36.001Z,945.9
2017-05-28T00:33:43.825Z,945.8
2017-05-28T00:34:51.910Z,945.8
2017-05-28T00:36:00.002Z,945.9
2017-05-28T00:37:08.084Z,945.9
2017-05-28T00:38:16.304Z,945.9
2017-05-28T00:39:24.345Z,945.9
2017-05-28T00:40:32.345Z,945.9
2017-05-28T00:41:47.601Z,945.9
2017-05-28T00:42:48.520Z,945.9
2017-05-28T00:43:56.732Z,945.9
2017-05-28T00:45:04.693Z,945.9
2017-05-28T00:46:12.777Z,945.9
2017-05-28T00:47:20.864Z,945.9
2017-05-28T00:48:29.072Z,945.9
2017-05-28T00:49:37.092Z,945.9
2017-05-28T00:50:45.124Z,945.8
2017-05-28T00:51:53.213Z,945.9
2017-05-28T00:53:01.297Z,945.8
2017-05-28T00:54:09.391Z,945.8
2017-05-28T00:55:17.765Z,945.9
2017-05-28T00:56:25.665Z,945.9
2017-05-28T00:57:33.652Z,945.9
2017-05-28T00:58:41.737Z,945.8
2017-05-28T00:59:49.828Z,945.8
2017-05-28T01:00:57.970Z,945.9
2017-05-28T01:02:06.199Z,945.8
2017-05-28T01:03:14.085Z,945.9
2017-05-28T01:04:22.227Z,945.9
2017-05-28T01:05:30.259Z,945.8
2017-05-28T01:06:38.469Z,945.8
2017-05-28T01:07:46.542Z,945.8
2017-05-28T01:08:54.639Z,945.8
2017-05-28T01:10:02.608Z,945.8
2017-05-28T01:11:10.694Z,945.8
2017-05-28T01:12:18.904Z,945.8
2017-05-28T01:13:26.869Z,945.8
2017-05-28T01:14:35.002Z,945.8
2017-05-28T01:15:43.039Z,945.8
2017-05-28T01:16:51.127Z,945.8
2017-05-28T01:17:59.279Z,945.8
2017-05-28T01:19:07.307Z,945.8
2017-05-28T01:20:15.529Z,945.8
2017-05-28T01:21:23.478Z,945.8
2017-05-28T01:22:31.615Z,945.8
2017-05-28T01:23:39.771Z,945.7
2017-05-28T01:24:47.737Z,945.7
2017-05-28T01:25:55.823Z,945.7
2017-05-28T01:27:03.911Z,945.7
2017-05-28T01:28:11.997Z,945.7
2017-05-28T01:29:20.140Z,945.7
2017-05-28T01:30:28.171Z,945.7
2017-05-28T01:31:36.451Z,945.7
2017-05-28T01:32:44.341Z,945.7
2017-05-28T01:33:52.428Z,945.7
2017-05-28T01:35:00.913Z,945.7
2017-05-28T01:36:08.722Z,945.7
2017-05-28T01:37:16.828Z,945.7
2017-05-28T01:38:24.777Z,945.7
2017-05-28T01:39:32.865Z,945.7
2017-05-28T01:40:41.009Z,945.7
2017-05-28T01:41:49.047Z,945.7
2017-05-28T01:42:57.144Z,945.7
2017-05-28T01:44:05.419Z,945.7
2017-05-28T01:45:13.314Z,945.7
2017-05-28T01:46:21.523Z,945.7
2017-05-28T01:47:29.486Z,945.7
2017-05-28T01:48:37.570Z,945.7
2017-05-28T01:49:45.655Z,945.7
2017-05-28T01:50:53.754Z,945.7
2017-05-28T01:52:01.957Z,945.7
2017-05-28T01:53:09.923Z,945.7
2017-05-28T01:54:18.009Z,945.7
2017-05-28T01:55:26.273Z,945.7
2017-05-28T01:56:34.378Z,945.7
2017-05-28T01:57:42.389Z,945.7
2017-05-28T01:58:50.354Z,945.7
2017-05-28T01:59:58.442Z,945.7
2017-05-28T02:01:06.529Z,945.7
2017-05-28T02:02:14.644Z,945.6
2017-05-28T02:03:22.759Z,945.6
2017-05-28T02:04:30.788Z,945.6
2017-05-28T02:05:38.873Z,945.6
2017-05-28T02:06:46.957Z,945.6
2017-05-28T02:07:55.213Z,945.6
2017-05-28T02:09:03.391Z,945.6
2017-05-28T02:10:11.217Z,945.6
2017-05-28T02:11:19.305Z,945.5
2017-05-28T02:12:27.390Z,945.6
2017-05-28T02:13:35.478Z,945.6
2017-05-28T02:14:43.684Z,945.6
2017-05-28T02:15:51.648Z,945.6
2017-05-28T02:16:59.738Z,945.5
2017-05-28T02:18:07.823Z,945.6
2017-05-28T02:19:15.909Z,945.5
2017-05-28T02:20:24.128Z,945.6
2017-05-28T02:21:32.202Z,945.5
2017-05-28T02:22:40.167Z,945.6
2017-05-28T02:23:48.374Z,945.6
2017-05-28T02:24:56.340Z,945.5
2017-05-28T02:26:04.553Z,945.5
2017-05-28T02:27:12.577Z,945.5
2017-05-28T02:28:20.617Z,945.5
2017-05-28T02:29:28.692Z,945.5
2017-05-28T02:30:36.778Z,945.5
2017-05-28T02:31:44.985Z,945.5
2017-05-28T02:32:52.979Z,945.5
2017-05-28T02:34:01.087Z,945.5
2017-05-28T02:35:09.122Z,945.5
2017-05-28T02:36:17.209Z,945.5
2017-05-28T02:37:25.415Z,945.5
2017-05-28T02:38:33.388Z,945.5
2017-05-28T02:39:41.566Z,945.5
2017-05-28T02:40:49.562Z,945.5
2017-05-28T02:41:57.648Z,945.5
2017-05-28T02:43:05.788Z,945.5
2017-05-28T02:44:13.818Z,945.5
2017-05-28T02:45:21.904Z,945.5
2017-05-28T02:46:29.990Z,945.6
2017-05-28T02:47:38.075Z,945.6
2017-05-28T02:48:46.284Z,945.6
2017-05-28T02:49:54.441Z,945.6
2017-05-28T02:51:02.356Z,945.6
2017-05-28T02:52:10.422Z,945.6
2017-05-28T02:53:18.508Z,945.6
2017-05-28T02:54:26.712Z,945.6
2017-05-28T02:55:34.739Z,945.6
2017-05-28T02:56:42.775Z,945.6
2017-05-28T02:57:50.853Z,945.6
2017-05-28T02:58:58.938Z,945.7
2017-05-28T03:00:07.271Z,945.6
2017-05-28T03:01:15.117Z,945.7
2017-05-28T03:02:23.390Z,945.6
2017-05-28T03:03:31.279Z,945.6
2017-05-28T03:04:39.368Z,945.6
2017-05-28T03:05:47.509Z,945.6
2017-05-28T03:06:55.538Z,945.6
2017-05-28T03:08:03.678Z,945.6
2017-05-28T03:09:11.866Z,945.6
2017-05-28T03:10:19.799Z,945.6
2017-05-28T03:11:27.942Z,945.6
2017-05-28T03:12:35.970Z,945.6
2017-05-28T03:13:44.056Z,945.7
2017-05-28T03:14:52.214Z,945.6
2017-05-28T03:16:00.235Z,945.6
2017-05-28T03:17:08.370Z,945.6
2017-05-28T03:18:16.403Z,945.7
2017-05-28T03:19:24.490Z,945.6
2017-05-28T03:20:32.576Z,945.7
2017-05-28T03:21:40.659Z,945.7
2017-05-28T03:22:48.867Z,945.7
2017-05-28T03:23:56.831Z,945.7
2017-05-28T03:25:05.061Z,945.7
2017-05-28T03:26:13.003Z,945.7
2017-05-28T03:27:21.213Z,945.6
2017-05-28T03:28:29.234Z,945.7
2017-05-28T03:29:37.268Z,945.7
2017-05-28T03:30:45.351Z,945.7
2017-05-28T03:31:53.440Z,945.7
2017-05-28T03:33:01.524Z,945.7
2017-05-28T03:34:09.734Z,945.7
2017-05-28T03:35:17.698Z,945.7
2017-05-28T03:36:25.789Z,945.7
2017-05-28T03:37:34.071Z,945.7
2017-05-28T03:38:41.962Z,945.7
2017-05-28T03:39:50.171Z,945.7
2017-05-28T03:40:58.134Z,945.7
2017-05-28T03:42:06.220Z,945.7
2017-05-28T03:43:14.429Z,945.8
2017-05-28T03:44:22.395Z,945.8
2017-05-28T03:45:30.533Z,945.8
2017-05-28T03:46:38.562Z,945.8
2017-05-28T03:47:46.651Z,945.8
2017-05-28T03:48:54.735Z,945.8
2017-05-28T03:50:02.821Z,945.8
2017-05-28T03:51:10.963Z,945.8
2017-05-28T03:52:18.992Z,945.8
2017-05-28T03:53:27.077Z,945.8
2017-05-28T03:54:35.165Z,945.8
2017-05-28T03:55:43.250Z,945.8
2017-05-28T03:56:51.655Z,945.8
2017-05-28T03:57:59.422Z,945.8
2017-05-28T03:59:07.562Z,945.8
2017-05-28T04:00:15.591Z,945.8
2017-05-28T04:01:23.679Z,945.8
2017-05-28T04:02:31.995Z,945.8
2017-05-28T04:03:40.044Z,945.8
2017-05-28T04:04:47.941Z,945.8
2017-05-28T04:05:56.023Z,945.8
2017-05-28T04:07:04.108Z,945.8
2017-05-28T04:08:12.314Z,945.8
2017-05-28T04:09:20.425Z,945.8
2017-05-28T04:10:28.365Z,945.8
2017-05-28T04:11:36.451Z,945.7
2017-05-28T04:12:44.539Z,945.7
2017-05-28T04:13:52.745Z,945.8
2017-05-28T04:15:00.772Z,945.8
2017-05-28T04:16:08.796Z,945.7
2017-05-28T04:17:16.882Z,945.8
2017-05-28T04:18:24.967Z,945.7
2017-05-28T04:19:33.173Z,945.8
2017-05-28T04:20:41.137Z,945.7
2017-05-28T04:21:49.292Z,945.7
2017-05-28T04:22:57.311Z,945.7
2017-05-28T04:24:05.401Z,945.7
2017-05-28T04:25:13.541Z,945.7
2017-05-28T04:26:21.573Z,945.7
2017-05-28T04:27:29.654Z,945.7
2017-05-28T04:28:37.742Z,945.7
2017-05-28T04:29:45.826Z,945.7
2017-05-28T04:30:54.035Z,945.7
2017-05-28T04:32:02.001Z,945.7
2017-05-28T04:33:10.089Z,945.7
2017-05-28T04:34:18.224Z,945.7
2017-05-28T04:35:26.259Z,945.7
2017-05-28T04:36:34.400Z,945.7
2017-05-28T04:37:42.429Z,945.7
2017-05-28T04:38:50.513Z,945.7
2017-05-28T04:39:58.611Z,945.7
2017-05-28T04:41:06.686Z,945.7
2017-05-28T04:42:14.899Z,945.8
2017-05-28T04:43:22.861Z,945.7
2017-05-28T04:44:30.943Z,945.8
2017-05-28T04:45:39.065Z,945.8
2017-05-28T04:46:47.279Z,945.7
2017-05-28T04:47:55.257Z,945.8
2017-05-28T04:49:03.287Z,945.7
2017-05-28T04:50:11.380Z,945.8
2017-05-28T04:51:19.464Z,945.8
2017-05-28T04:52:27.552Z,945.8
2017-05-28T04:53:35.757Z,945.8
2017-05-28T04:54:43.722Z,945.8
2017-05-28T04:55:51.808Z,945.8
2017-05-28T04:56:59.897Z,945.8
2017-05-28T04:58:08.640Z,945.8
2017-05-28T04:59:16.126Z,945.8
2017-05-28T05:00:24.153Z,945.8
2017-05-28T05:01:32.239Z,945.8
2017-05-28T05:02:40.578Z,945.8
2017-05-28T05:03:48.569Z,945.8
2017-05-28T05:04:56.671Z,945.9
2017-05-28T05:06:04.661Z,945.8
2017-05-28T05:07:12.744Z,945.8
2017-05-28T05:08:20.763Z,945.9
2017-05-28T05:09:28.952Z,945.8
2017-05-28T05:10:37.127Z,945.8
2017-05-28T05:11:45.072Z,945.9
2017-05-28T05:12:53.173Z,945.9
2017-05-28T05:14:01.192Z,945.9
2017-05-28T05:15:09.966Z,945.9
2017-05-28T05:16:17.838Z,945.8
2017-05-28T05:17:25.956Z,945.9
2017-05-28T05:18:35.258Z,945.9
2017-05-28T05:19:41.930Z,945.9
2017-05-28T05:20:49.843Z,945.8
2017-05-28T05:21:57.919Z,945.8
2017-05-28T05:23:05.881Z,945.8
2017-05-28T05:24:13.967Z,945.8
2017-05-28T05:25:22.056Z,945.8
2017-05-28T05:26:30.138Z,945.8
2017-05-28T05:27:39.748Z,945.8
2017-05-28T05:28:46.313Z,945.8
2017-05-28T05:29:54.504Z,945.8
2017-05-28T05:31:02.689Z,945.8
2017-05-28T05:32:10.570Z,945.8
2017-05-28T05:33:18.779Z,945.8
2017-05-28T05:34:26.872Z,945.8
2017-05-28T05:35:34.837Z,945.9
2017-05-28T05:36:42.922Z,945.9
2017-05-28T05:37:51.008Z,945.9
2017-05-28T05:38:59.339Z,945.8
2017-05-28T05:40:07.188Z,945.9
2017-05-28T05:41:15.266Z,945.9
2017-05-28T05:42:23.357Z,945.9
2017-05-28T05:43:31.508Z,945.9
2017-05-28T05:44:39.687Z,945.9
2017-05-28T05:45:47.699Z,945.9
2017-05-28T05:46:56.116Z,945.9
2017-05-28T05:48:03.909Z,945.9
2017-05-28T05:49:11.880Z,945.9
2017-05-28T05:50:20.152Z,945.9
2017-05-28T05:51:28.258Z,945.8
2017-05-28T05:52:36.166Z,945.9
2017-05-28T05:53:44.698Z,945.8
2017-05-28T05:54:52.313Z,945.8
2017-05-28T05:56:00.671Z,945.9
2017-05-28T05:57:08.484Z,945.8
2017-05-28T05:58:16.758Z,945.9
2017-05-28T05:59:25.147Z,945.9
2017-05-28T06:00:32.839Z,945.8
2017-05-28T06:01:41.093Z,945.9
2017-05-28T06:02:49.064Z,945.9
2017-05-28T06:03:57.093Z,945.8
2017-05-28T06:05:05.096Z,945.8
2017-05-28T06:06:13.238Z,945.9
2017-05-28T06:07:21.384Z,945.9
2017-05-28T06:08:29.350Z,945.9
2017-05-28T06:09:37.438Z,945.8
2017-05-28T06:10:45.524Z,945.9
2017-05-28T06:11:53.765Z,945.9
2017-05-28T06:13:07.773Z,945.9
2017-05-28T06:14:09.852Z,945.9
2017-05-28T06:15:18.303Z,945.9
2017-05-28T06:16:25.967Z,945.9
2017-05-28T06:17:34.042Z,945.9
2017-05-28T06:18:42.245Z,945.9
2017-05-28T06:19:50.524Z,945.9
2017-05-28T06:20:58.498Z,945.9
2017-05-28T06:22:06.449Z,945.9
2017-05-28T06:23:14.472Z,945.9
2017-05-28T06:24:22.683Z,945.9
2017-05-28T06:25:31.018Z,945.9
2017-05-28T06:26:38.846Z,945.9
2017-05-28T06:27:47.310Z,945.9
2017-05-28T06:28:55.500Z,945.9
2017-05-28T06:30:03.236Z,945.9
2017-05-28T06:31:11.073Z,946.0
2017-05-28T06:32:19.233Z,946.0
2017-05-28T06:33:27.320Z,946.0
2017-05-28T06:34:35.336Z,946.0
2017-05-28T06:35:43.671Z,946.0
2017-05-28T06:36:51.605Z,946.0
2017-05-28T06:37:59.715Z,946.0
2017-05-28T06:39:07.679Z,946.0
2017-05-28T06:40:15.765Z,946.0
2017-05-28T06:41:24.087Z,946.0
2017-05-28T06:42:31.961Z,946.0
2017-05-28T06:43:40.025Z,945.9
2017-05-28T06:44:48.110Z,945.9
2017-05-28T06:45:56.197Z,945.9
2017-05-28T06:47:04.529Z,945.9
2017-05-28T06:48:12.368Z,945.9
2017-05-28T06:49:20.453Z,945.9
2017-05-28T06:50:28.832Z,946.0
2017-05-28T06:51:36.626Z,945.9
2017-05-28T06:52:44.837Z,946.0
2017-05-28T06:53:52.858Z,946.0
2017-05-28T06:55:00.977Z,946.0
2017-05-28T06:56:09.155Z,946.0
2017-05-28T06:57:17.466Z,946.0
2017-05-28T06:58:25.966Z,946.0
2017-05-28T06:59:33.336Z,946.0
2017-05-28T07:00:41.706Z,946.0
2017-05-28T07:01:49.683Z,946.0
2017-05-28T07:02:57.642Z,946.0
2017-05-28T07:04:05.702Z,946.0
2017-05-28T07:05:13.670Z,946.0
2017-05-28T07:06:21.754Z,946.0
2017-05-28T07:07:29.838Z,946.0
2017-05-28T07:08:38.047Z,946.0
2017-05-28T07:09:46.140Z,946.0
2017-05-28T07:10:54.104Z,946.0
2017-05-28T07:12:02.190Z,946.0
2017-05-28T07:13:10.274Z,946.0
2017-05-28T07:14:18.416Z,946.0
2017-05-28T07:15:26.642Z,946.0
2017-05-28T07:16:34.534Z,946.0
2017-05-28T07:17:42.621Z,946.0
2017-05-28T07:18:50.707Z,946.0
2017-05-28T07:19:58.800Z,946.0
2017-05-28T07:21:07.038Z,946.0
2017-05-28T07:22:14.979Z,946.0
2017-05-28T07:23:23.068Z,946.0
2017-05-28T07:24:31.151Z,946.1
2017-05-28T07:25:39.288Z,946.0
2017-05-28T07:26:47.440Z,946.0
2017-05-28T07:27:55.406Z,946.0
2017-05-28T07:29:03.499Z,946.1
2017-05-28T07:30:11.580Z,946.0
2017-05-28T07:31:19.843Z,946.1
2017-05-28T07:32:28.071Z,946.0
2017-05-28T07:33:35.842Z,946.1
2017-05-28T07:34:43.927Z,946.1
2017-05-28T07:35:52.015Z,946.0
2017-05-28T07:37:00.107Z,946.1
2017-05-28T07:38:08.500Z,946.1
2017-05-28T07:39:16.282Z,946.1
2017-05-28T07:40:24.369Z,946.1
2017-05-28T07:41:32.511Z,946.1
2017-05-28T07:42:40.542Z,946.0
2017-05-28T07:43:48.819Z,946.0
2017-05-28T07:44:56.712Z,946.0
2017-05-28T07:46:04.807Z,946.0
2017-05-28T07:47:12.889Z,946.0
2017-05-28T07:48:21.009Z,946.0
2017-05-28T07:49:29.183Z,946.0
2017-05-28T07:50:37.306Z,946.0
2017-05-28T07:51:45.236Z,946.0
2017-05-28T07:52:53.328Z,946.0
2017-05-28T07:54:01.415Z,946.0
2017-05-28T07:55:09.621Z,946.0
2017-05-28T07:56:17.594Z,946.0
2017-05-28T07:57:25.731Z,946.0
2017-05-28T07:58:33.760Z,946.0
2017-05-28T07:59:41.848Z,945.9
2017-05-28T08:00:51.440Z,945.9
2017-05-28T08:01:58.038Z,946.0
2017-05-28T08:03:06.136Z,945.9
2017-05-28T08:04:14.205Z,946.0
2017-05-28T08:05:22.289Z,946.0
2017-05-28T08:06:30.497Z,945.9
2017-05-28T08:07:38.467Z,945.9
2017-05-28T08:08:46.553Z,945.9
2017-05-28T08:09:54.650Z,945.9
2017-05-28T08:11:02.727Z,945.9
2017-05-28T08:12:10.935Z,945.9
2017-05-28T08:13:18.958Z,945.9
2017-05-28T08:14:26.990Z,945.9
2017-05-28T08:15:35.243Z,945.9
2017-05-28T08:16:43.166Z,945.9
2017-05-28T08:17:51.371Z,945.9
2017-05-28T08:18:59.630Z,945.9
2017-05-28T08:20:07.518Z,945.9
2017-05-28T08:21:15.511Z,945.9
2017-05-28T08:22:23.670Z,945.9
2017-05-28T08:23:31.861Z,945.9
2017-05-28T08:24:39.800Z,945.9
2017-05-28T08:25:48.080Z,945.8
2017-05-28T08:26:56.050Z,945.8
2017-05-28T08:28:04.118Z,945.9
2017-05-28T08:29:12.474Z,945.9
2017-05-28T08:30:20.300Z,945.9
2017-05-28T08:31:28.342Z,945.9
2017-05-28T08:32:36.445Z,945.9
2017-05-28T08:33:44.560Z,945.9
2017-05-28T08:34:52.894Z,945.9
2017-05-28T08:36:00.708Z,945.8
2017-05-28T08:37:08.818Z,945.9
2017-05-28T08:38:16.824Z,945.8
2017-05-28T08:39:24.910Z,945.8
2017-05-28T08:40:33.054Z,945.8
2017-05-28T08:41:41.088Z,945.8
2017-05-28T08:42:49.459Z,945.9
2017-05-28T08:43:57.259Z,945.8
2017-05-28T08:45:05.466Z,945.8
2017-05-28T08:46:13.554Z,945.9
2017-05-28T08:47:21.521Z,945.9
2017-05-28T08:48:29.672Z,945.9
2017-05-28T08:49:37.891Z,945.9
2017-05-28T08:50:45.782Z,945.8
2017-05-28T08:51:53.926Z,945.8
2017-05-28T08:53:01.959Z,945.8
2017-05-28T08:54:10.045Z,945.8
2017-05-28T08:55:18.262Z,945.8
2017-05-28T08:56:26.222Z,945.8
2017-05-28T08:57:34.491Z,945.8
2017-05-28T08:58:42.397Z,945.8
2017-05-28T08:59:50.482Z,945.8
2017-05-28T09:00:58.689Z,945.9
2017-05-28T09:02:06.655Z,945.8
2017-05-28T09:03:14.801Z,945.8
2017-05-28T09:04:22.833Z,945.8
2017-05-28T09:05:30.919Z,945.8
2017-05-28T09:06:39.008Z,945.8
2017-05-28T09:07:47.098Z,945.9
2017-05-28T09:08:55.240Z,945.9
2017-05-28T09:10:03.270Z,945.8
2017-05-28T09:11:11.360Z,945.8
2017-05-28T09:12:19.443Z,945.8
2017-05-28T09:13:27.533Z,945.8
2017-05-28T09:14:35.742Z,945.8
2017-05-28T09:15:43.744Z,945.8
2017-05-28T09:16:51.917Z,945.8
2017-05-28T09:18:00.041Z,945.8
2017-05-28T09:19:08.133Z,945.8
2017-05-28T09:20:16.113Z,945.8
2017-05-28T09:21:24.145Z,945.8
2017-05-28T09:22:32.234Z,945.8
2017-05-28T09:23:40.321Z,945.8
2017-05-28T09:24:48.515Z,945.8
2017-05-28T09:25:56.617Z,945.7
2017-05-28T09:27:04.585Z,945.7
2017-05-28T09:28:12.673Z,945.8
2017-05-28T09:29:20.758Z,945.7
2017-05-28T09:30:28.871Z,945.8
2017-05-28T09:31:37.037Z,945.8
2017-05-28T09:32:45.142Z,945.7
2017-05-28T09:33:53.109Z,945.8
2017-05-28T09:35:01.200Z,945.8
2017-05-28T09:36:09.288Z,945.8
2017-05-28T09:37:17.497Z,945.8
2017-05-28T09:38:25.465Z,945.8
2017-05-28T09:39:33.550Z,945.8
2017-05-28T09:40:41.643Z,945.7
2017-05-28T09:41:49.727Z,945.7
2017-05-28T09:42:57.935Z,945.7
2017-05-28T09:44:05.902Z,945.7
2017-05-28T09:45:13.990Z,945.7
2017-05-28T09:46:22.079Z,945.7
2017-05-28T09:47:30.322Z,945.7
2017-05-28T09:48:38.455Z,945.7
2017-05-28T09:49:46.342Z,945.8
2017-05-28T09:50:54.429Z,945.7
2017-05-28T09:52:02.515Z,945.8
2017-05-28T09:53:10.606Z,945.7
2017-05-28T09:54:18.993Z,945.7
2017-05-28T09:55:26.781Z,945.7
2017-05-28T09:56:34.871Z,945.7
2017-05-28T09:57:42.956Z,945.7
2017-05-28T09:58:51.045Z,945.7
2017-05-28T09:59:59.320Z,945.7
2017-05-28T10:01:07.228Z,945.7
2017-05-28T10:02:15.311Z,945.7
2017-05-28T10:03:23.397Z,945.7
2017-05-28T10:04:31.603Z,945.7
2017-05-28T10:05:39.765Z,945.7
2017-05-28T10:06:47.657Z,945.8
2017-05-28T10:07:55.745Z,945.8
2017-05-28T10:09:03.836Z,945.8
2017-05-28T10:10:11.920Z,945.7
2017-05-28T10:11:20.066Z,945.8
2017-05-28T10:12:28.108Z,945.8
2017-05-28T10:13:36.185Z,945.8
2017-05-28T10:14:44.274Z,945.8
2017-05-28T10:15:52.364Z,945.8
2017-05-28T10:17:00.572Z,945.8
2017-05-28T10:18:08.538Z,945.8
2017-05-28T10:19:16.623Z,945.8
2017-05-28T10:20:24.832Z,945.7
2017-05-28T10:21:32.803Z,945.8
2017-05-28T10:22:41.018Z,945.7
2017-05-28T10:23:49.149Z,945.7
2017-05-28T10:24:57.066Z,945.8
2017-05-28T10:26:05.155Z,945.7
2017-05-28T10:27:13.244Z,945.8
2017-05-28T10:28:21.457Z,945.7
2017-05-28T10:29:29.539Z,945.7
2017-05-28T10:30:37.518Z,945.7
2017-05-28T10:31:45.608Z,945.7
2017-05-28T10:32:53.693Z,945.7
2017-05-28T10:34:01.903Z,945.7
2017-05-28T10:35:09.949Z,945.7
2017-05-28T10:36:18.165Z,945.7
2017-05-28T10:37:26.050Z,945.7
2017-05-28T10:38:34.141Z,945.7
2017-05-28T10:39:42.547Z,945.7
2017-05-28T10:40:50.319Z,945.6
2017-05-28T10:41:58.413Z,945.6
2017-05-28T10:43:06.502Z,945.6
2017-05-28T10:44:14.582Z,945.6
2017-05-28T10:45:22.726Z,945.6
2017-05-28T10:46:30.757Z,945.6
2017-05-28T10:47:38.850Z,945.6
2017-05-28T10:48:46.938Z,945.7
2017-05-28T10:49:55.022Z,945.6
2017-05-28T10:51:03.231Z,945.6
2017-05-28T10:52:11.503Z,945.6
2017-05-28T10:53:19.483Z,945.6
2017-05-28T10:54:27.375Z,945.6
2017-05-28T10:55:35.462Z,945.6
2017-05-28T10:56:43.672Z,945.6
2017-05-28T10:57:51.640Z,945.6
2017-05-28T10:58:59.919Z,945.6
2017-05-28T11:00:07.813Z,945.5
2017-05-28T11:01:15.915Z,945.6
2017-05-28T11:02:24.114Z,945.6
2017-05-28T11:03:32.080Z,945.6
2017-05-28T11:04:40.223Z,945.6
2017-05-28T11:05:48.323Z,945.5
2017-05-28T11:06:56.344Z,945.6
2017-05-28T11:08:04.489Z,945.5
2017-05-28T11:09:12.521Z,945.6
2017-05-28T11:10:20.611Z,945.6
2017-05-28T11:11:28.702Z,945.5
2017-05-28T11:12:36.791Z,945.5
2017-05-28T11:13:44.995Z,945.5
2017-05-28T11:14:52.972Z,945.5
2017-05-28T11:16:01.064Z,945.5
2017-05-28T11:17:09.151Z,945.5
2017-05-28T11:18:17.247Z,945.5
2017-05-28T11:19:25.392Z,945.5
2017-05-28T11:20:33.422Z,945.5
2017-05-28T11:21:41.686Z,945.5
2017-05-28T11:22:49.690Z,945.5
2017-05-28T11:23:57.808Z,945.5
2017-05-28T11:25:05.895Z,945.4
2017-05-28T11:26:13.864Z,945.5
2017-05-28T11:27:21.953Z,945.4
2017-05-28T11:28:30.164Z,945.4
2017-05-28T11:29:38.131Z,945.4
2017-05-28T11:30:46.280Z,945.4
2017-05-28T11:31:54.306Z,945.4
2017-05-28T11:33:02.395Z,945.3
2017-05-28T11:34:10.523Z,945.3
2017-05-28T11:35:18.571Z,945.3
2017-05-28T11:36:26.783Z,945.3
2017-05-28T11:37:34.759Z,945.3
2017-05-28T11:38:42.841Z,945.3
2017-05-28T11:39:50.984Z,945.3
2017-05-28T11:40:59.015Z,945.2
2017-05-28T11:42:07.229Z,945.3
2017-05-28T11:43:15.199Z,945.3
2017-05-28T11:44:23.285Z,945.3
2017-05-28T11:45:31.375Z,945.3
2017-05-28T11:46:39.464Z,945.3
2017-05-28T11:47:47.609Z,945.2
2017-05-28T11:48:55.641Z,945.2
2017-05-28T11:50:03.727Z,945.2
2017-05-28T11:51:11.993Z,945.2
2017-05-28T11:52:20.078Z,945.2
2017-05-28T11:53:28.115Z,945.1
2017-05-28T11:54:36.081Z,945.1
2017-05-28T11:55:44.298Z,945.1
2017-05-28T11:56:52.260Z,945.1
2017-05-28T11:58:00.421Z,945.1
2017-05-28T11:59:08.557Z,945.1
2017-05-28T12:00:16.522Z,945.1
2017-05-28T12:01:24.613Z,945.1
2017-05-28T12:02:32.700Z,945.1
2017-05-28T12:03:40.791Z,945.1
2017-05-28T12:04:49.003Z,945.1
2017-05-28T12:05:56.970Z,945.1
2017-05-28T12:07:05.059Z,945.1
2017-05-28T12:08:13.146Z,945.0
2017-05-28T12:09:21.233Z,945.0
2017-05-28T12:10:29.448Z,945.0
2017-05-28T12:11:37.529Z,945.0
2017-05-28T12:12:45.501Z,945.0
2017-05-28T12:13:53.588Z,945.0
2017-05-28T12:15:01.677Z,945.0
2017-05-28T12:16:09.827Z,945.0
2017-05-28T12:17:17.860Z,945.0
2017-05-28T12:18:25.951Z,945.0
2017-05-28T12:19:34.039Z,945.0
2017-05-28T12:20:42.251Z,945.0
2017-05-28T12:21:50.335Z,944.9
2017-05-28T12:22:58.306Z,944.9
2017-05-28T12:24:06.393Z,944.9
2017-05-28T12:25:14.481Z,944.9
2017-05-28T12:26:22.576Z,944.9
2017-05-28T12:27:30.788Z,944.9
2017-05-28T12:28:38.755Z,945.0
2017-05-28T12:29:46.844Z,945.0
2017-05-28T12:30:54.934Z,945.0
2017-05-28T12:32:03.022Z,945.0
2017-05-28T12:33:11.301Z,945.0
2017-05-28T12:34:19.200Z,944.9
2017-05-28T12:35:27.288Z,945.0
2017-05-28T12:36:35.383Z,944.9
2017-05-28T12:37:43.464Z,945.0
2017-05-28T12:38:51.672Z,945.0
2017-05-28T12:39:59.642Z,945.0
2017-05-28T12:41:07.743Z,945.0
2017-05-28T12:42:15.821Z,945.0
2017-05-28T12:43:23.967Z,945.0
2017-05-28T12:44:32.122Z,944.9
2017-05-28T12:45:40.087Z,944.9
2017-05-28T12:46:48.176Z,944.9
2017-05-28T12:47:56.265Z,944.9
2017-05-28T12:49:04.355Z,944.9
2017-05-28T12:50:12.564Z,944.9
2017-05-28T12:51:20.532Z,944.9
2017-05-28T12:52:28.629Z,944.9
2017-05-28T12:53:36.708Z,944.9
2017-05-28T12:54:44.797Z,944.9
2017-05-28T12:55:53.143Z,944.8
2017-05-28T12:57:01.125Z,944.8
2017-05-28T12:58:09.065Z,944.8
2017-05-28T12:59:17.274Z,944.8
2017-05-28T13:00:25.241Z,944.8
2017-05-28T13:01:33.388Z,944.8
2017-05-28T13:02:41.489Z,944.8
2017-05-28T13:03:49.511Z,944.7
2017-05-28T13:04:57.599Z,944.7
2017-05-28T13:06:05.687Z,944.7
2017-05-28T13:07:13.898Z,944.7
2017-05-28T13:08:21.865Z,944.7
2017-05-28T13:09:29.955Z,944.6
2017-05-28T13:10:38.046Z,944.6
2017-05-28T13:11:46.133Z,944.7
2017-05-28T13:12:54.572Z,944.7
2017-05-28T13:14:02.511Z,944.7
2017-05-28T13:15:10.533Z,944.7
2017-05-28T13:16:18.501Z,944.7
2017-05-28T13:17:26.591Z,944.8
2017-05-28T13:18:34.806Z,944.8
2017-05-28T13:19:42.866Z,944.7
2017-05-28T13:20:50.863Z,944.8
2017-05-28T13:21:58.952Z,944.7
2017-05-28T13:23:07.041Z,944.7
2017-05-28T13:24:15.250Z,944.7
2017-05-28T13:25:23.221Z,944.7
2017-05-28T13:26:31.327Z,944.7
2017-05-28T13:27:39.410Z,944.7
2017-05-28T13:28:47.486Z,944.7
2017-05-28T13:29:55.696Z,944.7
2017-05-28T13:31:03.720Z,944.7
2017-05-28T13:32:11.750Z,944.7
2017-05-28T13:33:19.843Z,944.7
2017-05-28T13:34:27.930Z,944.7
2017-05-28T13:35:36.145Z,944.6
2017-05-28T13:36:44.297Z,944.7
2017-05-28T13:37:52.198Z,944.7
2017-05-28T13:39:00.287Z,944.7
2017-05-28T13:40:08.383Z,944.7
2017-05-28T13:41:16.590Z,944.7
2017-05-28T13:42:24.650Z,944.7
2017-05-28T13:43:32.647Z,944.8
2017-05-28T13:44:40.735Z,944.8
2017-05-28T13:45:48.826Z,944.8
2017-05-28T13:46:57.034Z,944.8
2017-05-28T13:48:05.008Z,944.8
2017-05-28T13:49:13.243Z,944.8
2017-05-28T13:50:21.188Z,944.8
2017-05-28T13:51:29.275Z,944.8
2017-05-28T13:52:37.488Z,944.8
2017-05-28T13:53:45.460Z,944.8
2017-05-28T13:54:53.547Z,944.8
2017-05-28T13:56:01.654Z,944.8
2017-05-28T13:57:09.725Z,944.8
2017-05-28T13:58:17.932Z,944.8
2017-05-28T13:59:25.903Z,944.8
2017-05-28T14:00:33.991Z,944.8
2017-05-28T14:01:42.163Z,944.8
2017-05-28T14:02:50.292Z,944.8
2017-05-28T14:03:58.314Z,944.8
2017-05-28T14:05:06.349Z,944.8
2017-05-28T14:06:14.437Z,944.7
2017-05-28T14:07:22.619Z,944.8
2017-05-28T14:08:30.654Z,944.8
2017-05-28T14:09:38.760Z,944.8
2017-05-28T14:10:46.793Z,944.8
2017-05-28T14:11:54.880Z,944.8
2017-05-28T14:13:02.969Z,944.8
2017-05-28T14:14:11.129Z,944.8
2017-05-28T14:15:19.275Z,944.8
2017-05-28T14:16:27.248Z,944.8
2017-05-28T14:17:35.344Z,944.8
2017-05-28T14:18:43.578Z,944.8
2017-05-28T14:19:51.548Z,944.8
2017-05-28T14:21:00.039Z,944.8
2017-05-28T14:22:07.689Z,944.8
2017-05-28T14:23:15.779Z,944.8
2017-05-28T14:24:24.156Z,944.8
2017-05-28T14:25:32.525Z,944.8
2017-05-28T14:26:40.167Z,944.8
2017-05-28T14:27:48.334Z,944.7
2017-05-28T14:28:56.527Z,944.7
2017-05-28T14:30:04.608Z,944.7
2017-05-28T14:31:12.797Z,944.7
2017-05-28T14:32:22.506Z,944.7
2017-05-28T14:33:28.903Z,944.7
2017-05-28T14:34:36.861Z,944.7
2017-05-28T14:35:44.765Z,944.7
2017-05-28T14:36:53.057Z,944.7